createdAt,value
2018-09-04T00:00:21.443Z,14.13
2018-09-04T00:21:31.144Z,13.98
2018-09-04T00:26:25.802Z,13.94
2018-09-04T00:31:20.451Z,13.90
2018-09-04T00:36:15.056Z,13.83
2018-09-04T00:41:09.754Z,13.80
2018-09-04T00:46:04.441Z,13.77
2018-09-04T01:07:13.200Z,13.68
2018-09-04T01:12:07.847Z,13.57
2018-09-04T01:17:02.524Z,13.54
2018-09-04T01:21:57.181Z,13.51
2018-09-04T01:26:51.836Z,13.48
2018-09-04T01:31:46.455Z,13.53
2018-09-04T01:36:41.164Z,13.53
2018-09-04T01:57:50.961Z,13.31
2018-09-04T02:02:45.568Z,13.28
2018-09-04T02:07:40.272Z,13.28
2018-09-04T02:12:34.955Z,13.28
2018-09-04T02:17:29.586Z,13.25
2018-09-04T02:22:24.238Z,13.22
2018-09-04T02:27:18.857Z,13.17
2018-09-04T02:48:28.415Z,13.03
2018-09-04T02:53:23.270Z,13.05
2018-09-04T02:58:17.936Z,13.08
2018-09-04T03:03:12.519Z,13.05
2018-09-04T03:08:07.246Z,12.96
2018-09-04T03:13:01.884Z,12.93
2018-09-04T03:17:56.514Z,13.06
2018-09-04T03:39:06.698Z,12.79
2018-09-04T03:44:01.356Z,12.76
2018-09-04T03:48:56.003Z,12.75
2018-09-04T03:53:50.672Z,12.75
2018-09-04T03:58:45.357Z,12.73
2018-09-04T04:03:40.112Z,12.69
2018-09-04T04:08:34.858Z,12.75
2018-09-04T04:29:44.482Z,13.28
2018-09-04T04:34:39.159Z,13.40
2018-09-04T04:39:33.813Z,13.55
2018-09-04T04:44:28.575Z,13.66
2018-09-04T04:49:23.233Z,13.69
2018-09-04T04:54:18.020Z,13.80
2018-09-04T04:59:12.674Z,13.94
2018-09-04T05:20:24.387Z,14.47
2018-09-04T05:25:19.025Z,14.54
2018-09-04T05:30:13.643Z,14.61
2018-09-04T05:35:10.152Z,14.71
2018-09-04T05:40:05.336Z,14.85
2018-09-04T05:45:00.015Z,14.79
2018-09-04T05:49:54.982Z,14.81
2018-09-04T06:11:05.412Z,15.74
2018-09-04T06:16:00.173Z,15.91
2018-09-04T06:20:54.895Z,16.26
2018-09-04T06:25:49.683Z,17.09
2018-09-04T06:30:45.162Z,17.49
2018-09-04T06:35:40.392Z,17.58
2018-09-04T06:40:35.221Z,17.41
2018-09-04T07:01:44.292Z,16.57
2018-09-04T07:06:39.208Z,16.46
2018-09-04T07:11:34.134Z,16.32
2018-09-04T07:16:29.304Z,16.37
2018-09-04T07:21:24.584Z,16.45
2018-09-04T07:26:20.679Z,16.29
2018-09-04T07:31:25.494Z,16.31
2018-09-04T07:52:34.863Z,16.60
2018-09-04T07:57:32.089Z,17.02
2018-09-04T08:02:26.795Z,17.37
2018-09-04T08:07:25.717Z,16.88
2018-09-04T08:12:21.011Z,17.13
2018-09-04T08:17:15.743Z,17.65
2018-09-04T08:22:10.951Z,18.39
2018-09-04T08:43:22.795Z,19.83
2018-09-04T08:48:19.812Z,20.41
2018-09-04T08:53:15.087Z,20.66
2018-09-04T08:58:09.706Z,20.93
2018-09-04T09:03:04.555Z,20.98
2018-09-04T09:08:01.973Z,20.82
2018-09-04T09:29:11.330Z,20.90
2018-09-04T09:34:06.253Z,21.11
2018-09-04T09:39:00.989Z,21.18
2018-09-04T09:43:55.692Z,21.23
2018-09-04T09:49:00.454Z,21.10
2018-09-04T09:53:55.576Z,21.16
2018-09-04T09:58:50.216Z,21.56
2018-09-04T10:19:59.252Z,21.53
2018-09-04T10:24:53.871Z,22.27
2018-09-04T10:29:48.712Z,22.68
2018-09-04T10:34:43.412Z,22.86
2018-09-04T10:39:43.524Z,23.06
2018-09-04T10:44:38.565Z,23.18
2018-09-04T10:49:33.795Z,22.57
2018-09-04T11:10:43.673Z,23.21
2018-09-04T11:15:38.808Z,22.80
2018-09-04T11:20:33.615Z,23.05
2018-09-04T11:25:28.473Z,23.42
2018-09-04T11:30:23.241Z,23.67
2018-09-04T11:35:17.871Z,23.70
2018-09-04T11:40:12.684Z,23.31
2018-09-04T12:01:25.134Z,22.83
2018-09-04T12:06:20.025Z,23.18
2018-09-04T12:11:14.894Z,22.95
2018-09-04T12:16:10.246Z,23.46
2018-09-04T12:21:09.134Z,23.76
2018-09-04T12:26:05.400Z,23.51
2018-09-04T12:31:00.672Z,23.47
2018-09-04T12:52:12.206Z,23.81
2018-09-04T12:57:07.019Z,24.02
2018-09-04T13:02:03.419Z,23.68
2018-09-04T13:07:21.475Z,23.44
2018-09-04T13:12:16.520Z,23.15
2018-09-04T13:17:11.217Z,23.79
2018-09-04T13:22:06.759Z,23.26
2018-09-04T13:43:20.846Z,24.48
2018-09-04T13:48:17.413Z,24.63
2018-09-04T13:53:13.699Z,25.04
2018-09-04T13:58:10.446Z,24.76
2018-09-04T14:03:05.906Z,25.39
2018-09-04T14:08:00.812Z,25.23
2018-09-04T14:12:55.553Z,25.27
2018-09-04T14:34:06.114Z,25.91
2018-09-04T14:39:00.819Z,24.66
2018-09-04T14:43:55.664Z,24.32
2018-09-04T14:48:50.484Z,24.43
2018-09-04T14:53:45.623Z,24.76
2018-09-04T14:59:19.515Z,24.81
2018-09-04T15:04:14.767Z,24.21
2018-09-04T15:09:10.023Z,24.52
2018-09-04T15:14:04.804Z,24.65
2018-09-04T15:35:16.278Z,23.12
2018-09-04T15:40:10.929Z,22.98
2018-09-04T15:45:06.003Z,23.07
2018-09-04T15:50:00.737Z,22.72
2018-09-04T15:54:55.799Z,22.46
2018-09-04T15:59:52.258Z,22.37
2018-09-04T16:04:47.127Z,22.32
2018-09-04T16:25:56.347Z,22.09
2018-09-04T16:30:51.166Z,22.33
2018-09-04T16:35:45.823Z,22.19
2018-09-04T16:40:40.439Z,22.01
2018-09-04T16:45:35.257Z,22.05
2018-09-04T16:50:29.928Z,22.26
2018-09-04T16:55:24.660Z,22.22
2018-09-04T17:00:19.384Z,22.11
2018-09-04T17:21:28.307Z,22.06
2018-09-04T17:26:23.188Z,22.08
2018-09-04T17:31:18.157Z,22.08
2018-09-04T17:36:13.257Z,21.97
2018-09-04T17:41:07.984Z,21.78
2018-09-04T17:46:02.615Z,21.65
2018-09-04T17:50:57.235Z,21.48
2018-09-04T17:55:51.868Z,21.28
2018-09-04T18:17:01.872Z,20.55
2018-09-04T18:21:56.587Z,20.45
2018-09-04T18:26:51.533Z,20.36
2018-09-04T18:31:46.267Z,20.26
2018-09-04T18:36:41.269Z,20.16
2018-09-04T18:41:35.922Z,20.05
2018-09-04T18:46:30.595Z,19.87
2018-09-04T18:51:26.043Z,19.78
2018-09-04T19:12:34.796Z,19.39
2018-09-04T19:17:29.580Z,19.26
2018-09-04T19:22:24.220Z,19.13
2018-09-04T19:27:18.885Z,19.02
2018-09-04T19:32:13.569Z,18.96
2018-09-04T19:37:08.600Z,18.94
2018-09-04T19:42:03.338Z,18.88
2018-09-04T19:46:57.937Z,18.88
2018-09-04T20:08:07.159Z,18.53
2018-09-04T20:13:01.810Z,18.50
2018-09-04T20:17:56.377Z,18.45
2018-09-04T20:22:51.853Z,18.46
2018-09-04T20:27:46.471Z,18.48
2018-09-04T20:32:41.186Z,18.41
2018-09-04T20:37:35.846Z,18.36
2018-09-04T20:42:30.519Z,18.29
2018-09-04T21:03:55.859Z,17.86
2018-09-04T21:08:59.918Z,17.84
2018-09-04T21:13:54.569Z,17.79
2018-09-04T21:18:49.199Z,17.74
2018-09-04T21:23:43.855Z,17.65
2018-09-04T21:28:39.411Z,17.60
2018-09-04T21:33:34.126Z,17.37
2018-09-04T21:38:28.807Z,17.26
2018-09-04T21:59:38.100Z,16.97
2018-09-04T22:04:32.788Z,17.00
2018-09-04T22:09:27.499Z,17.07
2018-09-04T22:14:22.127Z,17.03
2018-09-04T22:19:16.767Z,16.96
2018-09-04T22:24:11.464Z,16.88
2018-09-04T22:29:06.123Z,16.78
2018-09-04T22:34:00.820Z,16.67
2018-09-04T22:55:12.259Z,16.42
2018-09-04T23:00:06.993Z,16.36
2018-09-04T23:05:01.713Z,16.33
2018-09-04T23:09:56.365Z,16.32
2018-09-04T23:14:51.028Z,16.28
2018-09-04T23:19:45.656Z,16.23
2018-09-04T23:24:40.308Z,16.17
2018-09-04T23:29:34.937Z,16.14
2018-09-04T23:50:44.858Z,15.94
2018-09-04T23:55:39.566Z,15.93
